Time;durP1;ratioP1;P1;durP2;ratioP2;P2;SDS_P1;SDS_P2;PMS_P1;PMS_P2;Temp;Humidity;BMP_temperature;BMP_pressure;BME280_temperature;BME280_humidity;BME280_pressure;Samples;Min_cycle;Max_cycle;Signal;HPM_P1;HPM_P2
2022/10/21 00:00:35;;;;;;;9.25;6.40;;;;;;;9.89;100.00;98312.34;4160019;28;20034;-73
2022/10/21 00:02:36;;;;;;;10.30;6.50;;;;;;;9.85;100.00;98309.56;4160589;28;20057;-74
2022/10/21 00:04:36;;;;;;;9.30;6.00;;;;;;;9.88;100.00;98313.53;4161385;28;20076;-73
2022/10/21 00:06:36;;;;;;;9.70;7.00;;;;;;;9.86;100.00;98318.63;4160680;28;20037;-73
2022/10/21 00:08:37;;;;;;;9.68;6.70;;;;;;;9.82;100.00;98335.16;4161061;28;20128;-73
2022/10/21 00:10:37;;;;;;;11.15;6.90;;;;;;;9.85;100.00;98337.19;4160192;28;20052;-73
2022/10/21 00:12:38;;;;;;;8.38;6.78;;;;;;;9.82;100.00;98328.84;4158170;28;20051;-74
2022/10/21 00:14:38;;;;;;;8.98;6.85;;;;;;;9.85;100.00;98319.81;4157725;28;20115;-74
2022/10/21 00:16:38;;;;;;;10.63;7.80;;;;;;;9.84;100.00;98318.19;4159704;28;20037;-73
2022/10/21 00:18:41;;;;;;;9.57;7.15;;;;;;;9.82;100.00;98320.53;4156977;28;20041;-73
2022/10/21 00:20:41;;;;;;;;;;;;;;;9.82;100.00;98318.56;4161123;28;20137;-73
2022/10/21 00:22:41;;;;;;;11.82;6.93;;;;;;;9.79;100.00;98310.25;4161730;28;20349;-73
2022/10/21 00:24:42;;;;;;;13.10;7.03;;;;;;;9.83;100.00;98311.88;4158900;28;20747;-73
2022/10/21 00:26:42;;;;;;;9.68;6.82;;;;;;;9.79;100.00;98297.25;4159066;28;20495;-73
2022/10/21 00:28:42;;;;;;;8.38;6.47;;;;;;;9.80;100.00;98304.34;4158157;28;20148;-73
2022/10/21 00:30:43;;;;;;;8.90;6.47;;;;;;;9.79;100.00;98304.72;4160425;28;20048;-73
2022/10/21 00:32:44;;;;;;;9.13;6.18;;;;;;;9.78;100.00;98297.63;4160161;28;20080;-73
2022/10/21 00:34:45;;;;;;;8.48;6.72;;;;;;;9.78;100.00;98286.56;4157327;28;20056;-73
2022/10/21 00:36:46;;;;;;;10.60;6.32;;;;;;;9.77;100.00;98280.25;4159185;28;20045;-73
2022/10/21 00:38:47;;;;;;;8.30;6.00;;;;;;;9.77;100.00;98279.47;4158613;28;20041;-73
2022/10/21 00:40:47;;;;;;;11.10;6.43;;;;;;;9.73;100.00;98264.78;4157701;28;20045;-73
2022/10/21 00:42:48;;;;;;;9.75;6.63;;;;;;;9.76;100.00;98267.63;4157928;28;20045;-73
2022/10/21 00:45:10;;;;;;;9.65;5.95;;;;;;;9.75;100.00;98268.75;4158296;28;20045;-73
2022/10/21 00:47:17;;;;;;;7.97;6.30;;;;;;;9.74;100.00;98278.22;4158419;28;20400;-73
2022/10/21 00:49:20;;;;;;;7.32;5.72;;;;;;;9.74;100.00;98275.47;4161066;28;20037;-73
2022/10/21 00:51:20;;;;;;;9.52;6.55;;;;;;;9.72;100.00;98274.25;4158682;28;20049;-73
2022/10/21 00:53:21;;;;;;;7.80;5.45;;;;;;;9.71;100.00;98276.22;4156202;28;20289;-73
2022/10/21 00:55:24;;;;;;;8.32;6.00;;;;;;;9.74;100.00;98282.94;4155988;28;20461;-73
2022/10/21 00:57:26;;;;;;;9.98;6.43;;;;;;;9.73;100.00;98282.16;4156083;28;20076;-73
2022/10/21 00:59:32;;;;;;;9.87;6.10;;;;;;;9.73;100.00;98281.38;4156564;28;20060;-73
2022/10/21 01:01:33;;;;;;;8.48;6.45;;;;;;;9.73;100.00;98282.16;4159191;28;20066;-74
2022/10/21 01:03:34;;;;;;;11.07;6.22;;;;;;;9.73;100.00;98270.31;4156395;28;20144;-73
2022/10/21 01:05:38;;;;;;;7.35;6.07;;;;;;;9.72;100.00;98264.00;4158141;28;20095;-73
2022/10/21 01:07:38;;;;;;;10.77;6.50;;;;;;;9.75;100.00;98259.69;4156361;28;20087;-73
2022/10/21 01:09:38;;;;;;;8.32;6.35;;;;;;;9.74;100.00;98258.88;4160051;28;20041;-73
2022/10/21 01:11:43;;;;;;;8.98;6.22;;;;;;;9.77;100.00;98257.34;4155869;28;20049;-73
2022/10/21 01:14:12;;;;;;;10.48;6.63;;;;;;;9.75;100.00;98259.69;4159947;28;20048;-73
2022/10/21 01:16:50;;;;;;;9.50;5.80;;;;;;;9.74;100.00;98260.84;4128325;28;20296;-73
2022/10/21 01:19:14;;;;;;;7.50;5.65;;;;;;;9.75;100.00;98267.97;4157109;28;20107;-73
2022/10/21 01:21:48;;;;;;;8.85;5.95;;;;;;;9.69;100.00;98259.25;4159541;28;20405;-73
2022/10/21 01:24:02;;;;;;;8.50;6.05;;;;;;;9.71;100.00;98264.38;4157376;28;20131;-73
2022/10/21 01:26:31;;;;;;;11.18;6.72;;;;;;;9.73;100.00;98257.28;4158045;28;20048;-73
2022/10/21 01:28:50;;;;;;;9.18;5.72;;;;;;;9.74;100.00;98245.06;4158593;28;20354;-74
2022/10/21 01:31:00;;;;;;;8.07;5.70;;;;;;;9.72;100.00;98243.88;4156497;28;20464;-73
2022/10/21 01:33:07;;;;;;;10.15;6.00;;;;;;;9.71;100.00;98245.03;4155338;28;20365;-73
2022/10/21 01:35:38;;;;;;;8.02;5.97;;;;;;;9.69;100.00;98241.88;4161575;28;20041;-73
2022/10/21 01:37:43;;;;;;;8.98;5.70;;;;;;;9.66;100.00;98237.09;4157974;28;20051;-73
2022/10/21 01:40:05;;;;;;;9.25;6.75;;;;;;;9.62;100.00;98239.81;4156757;28;20053;-73
2022/10/21 01:42:12;;;;;;;11.18;7.05;;;;;;;9.56;100.00;98228.31;4156148;28;20427;-73
2022/10/21 01:44:12;;;;;;;7.88;6.30;;;;;;;9.54;100.00;98233.41;4156989;28;20034;-74
2022/10/21 01:46:18;;;;;;;9.05;6.20;;;;;;;9.51;100.00;98233.34;4155972;28;20044;-74
2022/10/21 01:48:26;;;;;;;8.00;5.22;;;;;;;9.46;100.00;98226.22;4156655;28;20111;-73
2022/10/21 01:50:32;;;;;;;9.80;6.03;;;;;;;9.40;100.00;98227.72;4162556;28;20397;-73
2022/10/21 01:52:33;;;;;;;10.38;6.55;;;;;;;9.33;100.00;98221.31;4154333;28;20045;-73
2022/10/21 01:54:39;;;;;;;10.38;6.65;;;;;;;9.32;100.00;98211.44;4155633;28;20362;-74
2022/10/21 01:56:42;;;;;;;8.23;6.13;;;;;;;9.27;100.00;98202.34;4158189;28;20519;-73
2022/10/21 01:58:46;;;;;;;10.57;6.15;;;;;;;9.20;100.00;98204.22;4166880;28;20053;-74
2022/10/21 02:00:48;;;;;;;9.85;7.35;;;;;;;9.15;100.00;98201.78;4158135;28;20556;-74
2022/10/21 02:02:48;;;;;;;8.90;6.30;;;;;;;9.14;100.00;98202.94;4156296;28;20050;-73
2022/10/21 02:04:50;;;;;;;9.80;6.68;;;;;;;9.14;100.00;98206.50;4155982;28;20080;-73
2022/10/21 02:06:51;;;;;;;10.02;6.60;;;;;;;9.10;100.00;98204.84;4157955;28;20451;-73
2022/10/21 02:08:51;;;;;;;7.32;5.75;;;;;;;9.10;100.00;98202.91;4155863;28;20038;-73
2022/10/21 02:10:55;;;;;;;8.68;6.05;;;;;;;9.12;100.00;98194.25;4160391;28;20482;-73
2022/10/21 02:12:59;;;;;;;8.95;5.88;;;;;;;9.09;100.00;98192.22;4156156;28;20382;-73
2022/10/21 02:15:01;;;;;;;7.20;5.78;;;;;;;9.10;100.00;98185.53;4156057;28;20128;-73
2022/10/21 02:17:03;;;;;;;9.73;6.50;;;;;;;9.12;100.00;98191.50;4158184;28;20048;-73
2022/10/21 02:19:09;;;;;;;7.60;5.32;;;;;;;9.12;100.00;98183.22;4158522;28;20140;-73
2022/10/21 02:21:17;;;;;;;9.35;5.95;;;;;;;9.10;100.00;98172.56;4160574;28;20120;-74
2022/10/21 02:23:23;;;;;;;10.48;6.70;;;;;;;9.11;100.00;98168.63;4157674;28;20045;-73
2022/10/21 02:25:33;;;;;;;7.78;5.60;;;;;;;9.10;100.00;98164.28;4154382;28;20042;-73
2022/10/21 02:27:34;;;;;;;7.57;6.20;;;;;;;9.12;100.00;98161.94;4156424;28;20486;-73
2022/10/21 02:29:38;;;;;;;10.07;6.82;;;;;;;9.09;100.00;98159.91;4159753;28;20065;-73
2022/10/21 02:31:54;;;;;;;9.20;6.88;;;;;;;9.10;100.00;98163.44;4155892;28;20092;-73
2022/10/21 02:34:09;;;;;;;11.00;6.57;;;;;;;9.10;100.00;98155.16;4155911;28;20229;-73
2022/10/21 02:36:21;;;;;;;7.97;5.75;;;;;;;9.07;100.00;98145.69;4155692;28;20045;-73
2022/10/21 02:38:27;;;;;;;8.77;6.28;;;;;;;9.08;100.00;98141.75;4156684;28;20240;-73
2022/10/21 02:40:31;;;;;;;7.95;6.25;;;;;;;9.13;100.00;98143.41;4153931;28;20150;-73
2022/10/21 02:42:36;;;;;;;10.18;6.40;;;;;;;9.22;100.00;98143.91;4154181;28;20033;-73
2022/10/21 02:44:36;;;;;;;10.90;6.82;;;;;;;9.25;100.00;98146.69;4159200;28;20728;-73
2022/10/21 02:46:40;;;;;;;9.02;6.78;;;;;;;9.30;100.00;98151.09;4155009;28;20036;-73
2022/10/21 02:48:45;;;;;;;8.25;6.32;;;;;;;9.32;100.00;98159.78;4154754;28;20350;-73
2022/10/21 02:50:46;;;;;;;11.63;6.20;;;;;;;9.29;100.00;98153.06;4156208;28;20080;-73
2022/10/21 02:52:46;;;;;;;9.43;6.60;;;;;;;9.34;100.00;98151.91;4155271;28;20037;-73
2022/10/21 02:54:46;;;;;;;9.10;6.57;;;;;;;9.33;100.00;98147.56;4153539;28;20042;-73
2022/10/21 02:56:46;;;;;;;9.02;6.20;;;;;;;9.31;100.00;98147.16;4155414;28;20032;-73
2022/10/21 02:58:47;;;;;;;13.65;6.95;;;;;;;9.30;100.00;98151.09;4155995;28;20034;-73
2022/10/21 03:00:47;;;;;;;9.65;6.35;;;;;;;9.25;100.00;98137.59;4155183;28;20049;-73
2022/10/21 03:02:47;;;;;;;11.18;6.35;;;;;;;9.24;100.00;98134.06;4153150;28;20477;-73
2022/10/21 03:04:48;;;;;;;8.65;6.47;;;;;;;9.20;100.00;98121.41;4156145;28;20203;-73
2022/10/21 03:06:48;;;;;;;10.30;6.35;;;;;;;9.18;100.00;98130.03;4155229;28;20106;-73
2022/10/21 03:08:48;;;;;;;10.35;6.30;;;;;;;9.16;100.00;98118.59;4154263;28;20359;-73
2022/10/21 03:10:49;;;;;;;9.88;6.10;;;;;;;9.15;100.00;98117.00;4158783;28;20069;-73
2022/10/21 03:12:49;;;;;;;9.98;7.13;;;;;;;9.16;100.00;98126.06;4154449;28;20045;-73
2022/10/21 03:14:50;;;;;;;10.95;6.10;;;;;;;9.11;100.00;98126.44;4155802;28;20068;-73
2022/10/21 03:16:50;;;;;;;10.77;6.82;;;;;;;9.09;100.00;98128.75;4155652;28;20219;-73
2022/10/21 03:18:50;;;;;;;12.05;7.57;;;;;;;9.07;100.00;98129.13;4160252;28;20057;-73
2022/10/21 03:20:51;;;;;;;10.68;6.80;;;;;;;9.05;100.00;98133.44;4158118;28;20053;-73
2022/10/21 03:22:51;;;;;;;9.05;6.47;;;;;;;8.94;100.00;98128.59;4156700;28;20041;-73
2022/10/21 03:24:51;;;;;;;12.40;8.48;;;;;;;8.89;100.00;98131.69;4158744;28;20196;-73
2022/10/21 03:26:52;;;;;;;13.18;8.52;;;;;;;8.88;100.00;98143.88;4164986;28;20448;-73
2022/10/21 03:28:52;;;;;;;13.40;7.78;;;;;;;8.85;100.00;98136.34;4159352;28;20093;-73
2022/10/21 03:30:53;;;;;;;11.90;7.75;;;;;;;8.84;100.00;98134.75;4161955;28;20065;-73
2022/10/21 03:32:53;;;;;;;11.95;8.40;;;;;;;8.82;100.00;98128.81;4157832;28;20104;-73
2022/10/21 03:34:53;;;;;;;14.32;7.63;;;;;;;8.81;100.00;98135.50;4157846;28;20049;-73
2022/10/21 03:36:54;;;;;;;12.90;7.60;;;;;;;8.80;100.00;98122.91;4156282;28;20041;-73
2022/10/21 03:38:54;;;;;;;16.80;8.13;;;;;;;8.80;100.00;98120.13;4158545;28;20144;-73
2022/10/21 03:40:54;;;;;;;11.02;7.43;;;;;;;8.78;100.00;98119.72;4157750;28;20049;-73
2022/10/21 03:42:56;;;;;;;14.05;8.05;;;;;;;8.79;100.00;98131.56;4156345;28;20829;-73
2022/10/21 03:44:56;;;;;;;12.32;7.47;;;;;;;8.78;100.00;98141.00;4158442;28;20053;-73
2022/10/21 03:46:56;;;;;;;13.82;8.00;;;;;;;8.79;100.00;98137.06;4158050;28;20476;-73
2022/10/21 03:48:56;;;;;;;13.88;7.68;;;;;;;8.80;100.00;98131.16;4158032;28;20397;-73
2022/10/21 03:50:57;;;;;;;12.75;7.82;;;;;;;8.80;100.00;98131.16;4157999;28;20040;-73
2022/10/21 03:52:58;;;;;;;11.52;7.32;;;;;;;8.76;100.00;98124.78;4158390;28;20178;-73
2022/10/21 03:54:58;;;;;;;12.30;8.30;;;;;;;8.81;100.00;98127.25;4157461;28;20385;-73
2022/10/21 03:56:59;;;;;;;10.48;7.95;;;;;;;8.81;100.00;98129.19;4156771;28;20041;-73
2022/10/21 03:58:59;;;;;;;10.15;6.90;;;;;;;8.79;100.00;98118.56;4158492;28;20343;-73
2022/10/21 04:01:00;;;;;;;12.93;7.45;;;;;;;8.78;100.00;98114.22;4160707;28;20110;-74
2022/10/21 04:03:00;;;;;;;9.73;6.75;;;;;;;8.76;100.00;98116.53;4159601;28;20045;-73
2022/10/21 04:05:01;;;;;;;12.32;7.32;;;;;;;8.73;100.00;98122.78;4157901;28;20053;-73
2022/10/21 04:07:01;;;;;;;10.98;6.40;;;;;;;8.71;100.00;98116.88;4158993;28;20034;-73
2022/10/21 04:09:02;;;;;;;8.50;6.07;;;;;;;8.67;100.00;98104.97;4158236;28;20057;-73
2022/10/21 04:11:02;;;;;;;9.40;6.50;;;;;;;8.62;100.00;98100.59;4156006;28;20046;-73
2022/10/21 04:13:02;;;;;;;9.60;6.72;;;;;;;8.56;100.00;98104.84;4157615;28;20314;-73
2022/10/21 04:15:04;;;;;;;15.65;8.20;;;;;;;8.54;100.00;98109.94;4157233;28;20449;-73
2022/10/21 04:17:05;;;;;;;13.73;7.38;;;;;;;8.54;100.00;98114.66;4158717;28;20397;-73
2022/10/21 04:19:05;;;;;;;13.57;7.47;;;;;;;8.52;100.00;98120.53;4158757;28;20377;-73
2022/10/21 04:21:05;;;;;;;10.75;6.68;;;;;;;8.52;100.00;98119.75;4162867;28;20050;-73
2022/10/21 04:23:06;;;;;;;13.13;7.43;;;;;;;8.56;100.00;98126.91;4158488;28;20037;-73
2022/10/21 04:25:06;;;;;;;13.77;7.57;;;;;;;8.55;100.00;98127.28;4158785;28;20594;-73
2022/10/21 04:27:07;;;;;;;10.32;6.60;;;;;;;8.59;100.00;98133.63;4161693;28;20053;-73
2022/10/21 04:29:07;;;;;;;10.93;6.70;;;;;;;8.57;100.00;98122.19;4157746;28;20551;-73
2022/10/21 04:31:08;;;;;;;12.02;6.30;;;;;;;8.65;100.00;98130.19;4159570;28;20504;-73
2022/10/21 04:33:08;;;;;;;11.75;6.93;;;;;;;8.68;100.00;98128.63;4157745;28;20498;-73
2022/10/21 04:35:08;;;;;;;12.10;7.30;;;;;;;8.69;100.00;98121.97;4157243;28;20398;-73
2022/10/21 04:37:09;;;;;;;10.23;6.85;;;;;;;8.63;100.00;98115.97;4158778;28;20425;-73
2022/10/21 04:39:09;;;;;;;10.52;7.15;;;;;;;8.62;100.00;98108.88;4161495;28;20329;-73
2022/10/21 04:41:09;;;;;;;14.70;8.40;;;;;;;8.61;100.00;98112.00;4157934;28;20041;-73
2022/10/21 04:43:10;;;;;;;10.95;7.00;;;;;;;8.57;100.00;98111.16;4159723;28;20048;-73
2022/10/21 04:45:10;;;;;;;13.07;7.35;;;;;;;8.55;100.00;98119.81;4160611;28;20566;-73
2022/10/21 04:47:10;;;;;;;10.85;6.40;;;;;;;8.51;100.00;98105.16;4159168;28;20077;-73
2022/10/21 04:49:10;;;;;;;13.43;7.38;;;;;;;8.50;100.00;98105.53;4161279;28;20101;-73
2022/10/21 04:51:11;;;;;;;10.02;7.70;;;;;;;8.51;100.00;98107.13;4157559;28;20114;-73
2022/10/21 04:53:11;;;;;;;10.52;6.75;;;;;;;8.52;100.00;98098.47;4156948;28;20644;-73
2022/10/21 04:55:12;;;;;;;8.80;6.68;;;;;;;8.50;100.00;98109.09;4162041;28;20435;-73
2022/10/21 04:57:12;;;;;;;10.88;7.68;;;;;;;8.48;100.00;98097.66;4158018;28;20057;-73
2022/10/21 04:59:13;;;;;;;8.75;6.50;;;;;;;8.47;100.00;98098.81;4164216;28;20080;-73
2022/10/21 05:01:13;;;;;;;8.73;6.38;;;;;;;8.50;100.00;98102.78;4114479;28;20067;-73
2022/10/21 05:03:13;;;;;;;9.52;6.85;;;;;;;8.48;100.00;98097.66;4161503;28;20029;-73
2022/10/21 05:05:14;;;;;;;9.50;6.53;;;;;;;8.47;100.00;98081.47;4158705;28;20207;-74
2022/10/21 05:07:14;;;;;;;9.98;6.05;;;;;;;8.45;100.00;98079.09;4160457;28;20037;-73
2022/10/21 05:09:14;;;;;;;10.90;6.28;;;;;;;8.47;100.00;98070.47;4159346;28;20382;-73
2022/10/21 05:11:15;;;;;;;10.27;7.05;;;;;;;8.49;100.00;98073.63;4160429;28;20449;-73
2022/10/21 05:13:15;;;;;;;9.90;6.43;;;;;;;8.47;100.00;98064.94;4160402;28;20149;-73
2022/10/21 05:15:15;;;;;;;14.10;7.32;;;;;;;8.43;100.00;98059.38;4160472;28;20045;-73
2022/10/21 05:17:16;;;;;;;10.20;6.15;;;;;;;8.43;100.00;98057.41;4159890;28;20045;-73
2022/10/21 05:19:16;;;;;;;9.73;5.93;;;;;;;8.40;100.00;98041.63;4159332;28;20718;-73
2022/10/21 05:21:16;;;;;;;9.13;6.13;;;;;;;8.41;100.00;98045.97;4158003;28;20041;-73
2022/10/21 05:23:17;;;;;;;9.88;6.15;;;;;;;8.40;100.00;98043.59;4158809;28;20041;-73
2022/10/21 05:25:17;;;;;;;9.82;6.78;;;;;;;8.40;100.00;98038.88;4157099;28;20073;-73
2022/10/21 05:27:18;;;;;;;12.48;7.60;;;;;;;8.39;100.00;98040.03;4157184;28;20176;-73
2022/10/21 05:29:18;;;;;;;11.15;6.55;;;;;;;8.37;100.00;98039.63;4159412;28;20440;-74
2022/10/21 05:31:18;;;;;;;10.38;6.03;;;;;;;8.37;100.00;98036.06;4159942;28;20088;-73
2022/10/21 05:33:18;;;;;;;11.57;6.32;;;;;;;8.34;100.00;98034.81;4157453;28;20117;-73
2022/10/21 05:35:19;;;;;;;9.60;6.32;;;;;;;8.32;100.00;98036.34;4158100;28;20071;-73
2022/10/21 05:37:19;;;;;;;9.40;6.47;;;;;;;8.29;100.00;98031.59;4156670;28;20525;-73
2022/10/21 05:39:19;;;;;;;8.90;6.20;;;;;;;8.30;100.00;98033.97;4157988;28;20273;-73
2022/10/21 05:41:20;;;;;;;10.18;6.13;;;;;;;8.30;100.00;98028.47;4158530;28;20116;-73
2022/10/21 05:43:20;;;;;;;10.10;5.95;;;;;;;8.29;100.00;98037.13;4156122;28;20049;-73
2022/10/21 05:45:21;;;;;;;8.13;5.75;;;;;;;8.28;100.00;98025.31;4158561;28;20466;-73
2022/10/21 05:47:22;;;;;;;13.02;5.80;;;;;;;8.27;100.00;98031.16;4158655;28;20152;-73
2022/10/21 05:49:23;;;;;;;7.97;5.88;;;;;;;8.27;100.00;98034.72;4156422;28;20641;-73
2022/10/21 05:51:25;;;;;;;9.82;5.68;;;;;;;8.26;100.00;98026.81;4158158;28;20051;-73
2022/10/21 05:53:25;;;;;;;12.52;5.90;;;;;;;8.24;100.00;98029.16;4157336;28;20398;-73
2022/10/21 05:55:26;;;;;;;12.38;6.43;;;;;;;8.20;100.00;98023.63;4157147;28;20425;-74
2022/10/21 05:57:26;;;;;;;8.15;5.78;;;;;;;8.18;100.00;98031.44;4161093;28;20212;-73
2022/10/21 05:59:26;;;;;;;9.23;5.72;;;;;;;8.19;100.00;98033.03;4157693;28;20045;-73
2022/10/21 06:01:27;;;;;;;7.65;5.93;;;;;;;8.21;100.00;98036.22;4158821;28;20042;-73
2022/10/21 06:03:30;;;;;;;11.45;6.55;;;;;;;8.22;100.00;98037.81;4156300;28;20038;-73
2022/10/21 06:05:30;;;;;;;8.25;5.68;;;;;;;8.24;100.00;98040.97;4156770;28;20041;-73
2022/10/21 06:07:30;;;;;;;10.38;6.10;;;;;;;8.24;100.00;98037.44;4156837;28;20473;-73
2022/10/21 06:09:31;;;;;;;10.85;5.90;;;;;;;8.26;100.00;98033.13;4163758;28;20042;-73
2022/10/21 06:11:31;;;;;;;8.15;6.18;;;;;;;8.24;100.00;98027.19;4156323;28;20056;-73
2022/10/21 06:13:32;;;;;;;9.55;5.78;;;;;;;8.27;100.00;98028.41;4156985;28;20136;-73
2022/10/21 06:15:32;;;;;;;11.98;6.18;;;;;;;8.29;100.00;98028.84;4156595;28;20397;-73
2022/10/21 06:17:32;;;;;;;11.68;7.65;;;;;;;8.30;100.00;98028.47;4154306;28;20075;-73
2022/10/21 06:19:33;;;;;;;14.52;8.63;;;;;;;8.30;100.00;98028.47;4154688;28;20481;-73
2022/10/21 06:21:33;;;;;;;21.25;10.65;;;;;;;8.29;100.00;98021.38;4157591;28;20056;-73
2022/10/21 06:23:34;;;;;;;22.80;12.63;;;;;;;8.29;100.00;98018.63;4155133;28;20045;-73
2022/10/21 06:25:34;;;;;;;22.35;14.38;;;;;;;8.32;100.00;98017.06;4156746;28;20404;-73
2022/10/21 06:27:34;;;;;;;18.70;12.20;;;;;;;8.29;100.00;98013.09;4154345;28;20398;-73
2022/10/21 06:29:34;;;;;;;24.60;12.60;;;;;;;8.32;100.00;98022.56;4157033;28;20049;-73
2022/10/21 06:31:35;;;;;;;23.23;16.17;;;;;;;8.30;100.00;98030.44;4157106;28;20045;-73
2022/10/21 06:33:35;;;;;;;29.08;17.60;;;;;;;8.25;100.00;98042.56;4157772;28;20116;-73
2022/10/21 06:35:35;;;;;;;35.97;18.83;;;;;;;8.22;100.00;98042.53;4161606;28;20796;-73
2022/10/21 06:37:36;;;;;;;19.05;10.13;;;;;;;8.26;100.00;98041.38;4156459;28;20044;-73
2022/10/21 06:39:36;;;;;;;14.82;8.88;;;;;;;8.28;100.00;98036.31;4158953;28;20417;-73
2022/10/21 06:41:36;;;;;;;17.27;8.85;;;;;;;8.31;100.00;98038.31;4158231;28;20124;-73
2022/10/21 06:43:37;;;;;;;11.30;8.20;;;;;;;8.28;100.00;98039.09;4157158;28;20044;-73
2022/10/21 06:45:37;;;;;;;16.15;8.52;;;;;;;8.25;100.00;98041.78;4156966;28;20043;-73
2022/10/21 06:47:37;;;;;;;13.93;7.55;;;;;;;8.21;100.00;98052.75;4152805;28;20317;-73
2022/10/21 06:49:37;;;;;;;14.60;7.55;;;;;;;8.18;100.00;98053.47;4155910;28;20152;-73
2022/10/21 06:51:38;;;;;;;11.27;7.40;;;;;;;8.14;100.00;98049.91;4156724;28;20104;-73
2022/10/21 06:53:38;;;;;;;16.73;8.32;;;;;;;8.11;100.00;98051.44;4158908;28;20084;-73
2022/10/21 06:55:38;;;;;;;12.57;7.63;;;;;;;8.10;100.00;98036.06;4157012;28;20132;-73
2022/10/21 06:57:39;;;;;;;16.40;7.85;;;;;;;8.07;100.00;98031.31;4158068;28;20474;-73
2022/10/21 06:59:39;;;;;;;15.93;8.05;;;;;;;8.06;100.00;98029.72;4157503;28;20033;-73
2022/10/21 07:01:39;;;;;;;14.52;8.82;;;;;;;8.02;100.00;98034.38;4157074;28;20037;-73
2022/10/21 07:03:39;;;;;;;17.48;8.07;;;;;;;8.02;100.00;98050.91;4154788;28;20037;-73
2022/10/21 07:05:40;;;;;;;15.35;8.32;;;;;;;8.03;100.00;98052.50;4158795;28;20045;-73
2022/10/21 07:07:40;;;;;;;20.00;8.68;;;;;;;8.07;100.00;98061.59;4154048;28;20037;-73
2022/10/21 07:09:40;;;;;;;16.38;8.32;;;;;;;8.10;100.00;98054.56;4155064;28;20340;-73
2022/10/21 07:11:41;;;;;;;12.23;7.65;;;;;;;8.13;100.00;98049.09;4154541;28;20045;-73
2022/10/21 07:13:41;;;;;;;16.38;7.88;;;;;;;8.21;100.00;98065.75;4159739;28;20045;-73
2022/10/21 07:15:41;;;;;;;13.90;8.05;;;;;;;8.26;100.00;98066.19;4155319;28;20049;-73
2022/10/21 07:17:41;;;;;;;12.95;7.05;;;;;;;8.33;100.00;98058.03;4156055;28;20404;-73
2022/10/21 07:19:42;;;;;;;13.88;7.85;;;;;;;8.38;100.00;98057.75;4156387;28;20038;-73
2022/10/21 07:21:43;;;;;;;14.63;8.30;;;;;;;8.46;100.00;98058.63;4154930;28;20068;-73
2022/10/21 07:23:50;;;;;;;14.45;8.57;;;;;;;8.53;100.00;98058.72;4155556;28;20112;-73
2022/10/21 07:25:50;;;;;;;17.63;7.60;;;;;;;8.58;100.00;98057.59;4159998;28;20045;-73
2022/10/21 07:27:50;;;;;;;10.05;6.63;;;;;;;8.64;100.00;98061.63;4156463;28;20064;-73
2022/10/21 07:29:50;;;;;;;11.43;7.35;;;;;;;8.68;100.00;98059.69;4153555;28;20050;-73
2022/10/21 07:31:51;;;;;;;10.70;7.30;;;;;;;8.77;100.00;98062.16;4155326;28;20045;-73
2022/10/21 07:33:51;;;;;;;13.57;8.32;;;;;;;8.81;100.00;98047.25;4153778;28;20068;-73
2022/10/21 07:36:04;;;;;;;17.77;8.75;;;;;;;8.91;100.00;98048.53;4154141;28;20045;-73
2022/10/21 07:38:04;;;;;;;13.10;8.73;;;;;;;8.99;100.00;98051.00;4158610;28;20049;-73
2022/10/21 07:40:07;;;;;;;14.32;8.45;;;;;;;9.06;100.00;98044.75;4154388;28;20038;-73
2022/10/21 07:42:08;;;;;;;12.82;8.15;;;;;;;9.13;100.00;98063.34;4153337;28;20433;-73
2022/10/21 07:44:09;;;;;;;14.77;7.20;;;;;;;9.16;100.00;98055.09;4152622;28;20261;-73
2022/10/21 07:46:10;;;;;;;12.48;7.60;;;;;;;9.21;100.00;98056.75;4154967;28;20041;-73
2022/10/21 07:48:10;;;;;;;13.32;7.70;;;;;;;9.29;100.00;98055.63;4153870;28;20048;-73
2022/10/21 07:50:11;;;;;;;16.02;9.25;;;;;;;9.38;100.00;98042.31;4154939;28;20060;-73
2022/10/21 07:52:11;;;;;;;13.90;9.40;;;;;;;9.48;100.00;98049.88;4153988;28;20421;-73
2022/10/21 07:54:13;;;;;;;15.85;9.48;;;;;;;9.58;100.00;98054.72;4153657;28;20044;-73
2022/10/21 07:56:16;;;;;;;12.93;8.43;;;;;;;9.71;100.00;98055.22;4154898;28;20353;-73
2022/10/21 07:58:16;;;;;;;18.25;9.30;;;;;;;9.79;100.00;98048.56;4156289;28;20029;-73
2022/10/21 08:00:17;;;;;;;15.68;9.38;;;;;;;9.93;100.00;98041.53;4154728;28;20107;-73
2022/10/21 08:02:17;;;;;;;15.35;8.43;;;;;;;9.96;100.00;98044.34;4153663;28;20034;-73
2022/10/21 08:04:19;;;;;;;12.18;8.80;;;;;;;10.01;100.00;98044.00;4158157;28;20029;-73
2022/10/21 08:06:21;;;;;;;16.20;8.93;;;;;;;10.06;100.00;98043.63;4159669;28;20067;-73
2022/10/21 08:08:22;;;;;;;15.15;8.93;;;;;;;10.08;100.00;98034.94;4159148;28;20421;-73
2022/10/21 08:10:22;;;;;;;11.90;7.88;;;;;;;10.13;100.00;98034.59;4157983;28;20068;-73
2022/10/21 08:12:23;;;;;;;15.30;8.43;;;;;;;10.18;100.00;98038.94;4162938;28;20072;-73
2022/10/21 08:14:23;;;;;;;16.33;8.27;;;;;;;10.21;100.00;98027.13;4158568;28;20056;-73
2022/10/21 08:16:25;;;;;;;13.85;8.20;;;;;;;10.27;100.00;98040.25;4159035;28;20048;-73
2022/10/21 08:18:26;;;;;;;11.40;7.57;;;;;;;10.31;100.00;98038.28;4158233;28;20084;-73
2022/10/21 08:20:27;;;;;;;14.88;8.98;;;;;;;10.34;100.00;98039.47;4156467;28;20041;-73
2022/10/21 08:22:27;;;;;;;14.30;8.50;;;;;;;10.38;100.00;98030.03;4156559;28;20535;-73
2022/10/21 08:24:27;;;;;;;14.65;9.55;;;;;;;10.40;100.00;98032.41;4157318;28;20046;-73
2022/10/21 08:26:28;;;;;;;17.02;9.98;;;;;;;10.45;100.00;98037.56;4158838;28;20410;-73
2022/10/21 08:28:30;;;;;;;16.35;12.02;;;;;;;10.54;100.00;98032.47;4156635;28;20750;-73
2022/10/21 08:30:31;;;;;;;15.35;11.23;;;;;;;10.57;100.00;98033.66;4160826;28;20342;-73
2022/10/21 08:32:31;;;;;;;16.50;9.13;;;;;;;10.57;100.00;98041.97;4156497;28;20045;-73
2022/10/21 08:34:31;;;;;;;14.57;10.63;;;;;;;10.57;100.00;98042.75;4154712;28;20386;-73
2022/10/21 08:36:31;;;;;;;11.73;9.30;;;;;;;10.57;100.00;98050.25;4158297;28;20080;-73
2022/10/21 08:38:32;;;;;;;15.15;9.95;;;;;;;10.59;100.00;98047.88;4156853;28;20501;-73
2022/10/21 08:40:43;;;;;;;18.83;10.35;;;;;;;10.64;100.00;98056.63;4156063;28;20049;-73
2022/10/21 08:42:44;;;;;;;13.43;9.25;;;;;;;10.67;100.00;98060.56;4154942;28;20469;-73
2022/10/21 08:45:02;;;;;;;15.75;9.32;;;;;;;10.67;100.00;98061.38;4157171;28;20273;-73
2022/10/21 08:47:10;;;;;;;15.85;9.65;;;;;;;10.71;100.00;98053.09;4160646;28;20049;-73
2022/10/21 08:49:23;;;;;;;13.30;9.65;;;;;;;10.77;100.00;98046.00;4156929;28;20045;-73
2022/10/21 08:51:39;;;;;;;15.18;10.02;;;;;;;10.78;100.00;98039.28;4159484;28;20479;-73
2022/10/21 08:53:45;;;;;;;14.88;8.77;;;;;;;10.80;100.00;98047.97;4156733;28;20041;-73
2022/10/21 08:55:46;;;;;;;16.15;9.55;;;;;;;10.83;100.00;98044.44;4157820;28;20047;-73
2022/10/21 08:57:48;;;;;;;12.00;9.27;;;;;;;10.84;100.00;98036.91;4155923;28;20045;-73
2022/10/21 08:59:50;;;;;;;14.68;9.18;;;;;;;10.85;100.00;98046.81;4158846;28;20057;-73
2022/10/21 09:02:00;;;;;;;15.75;10.10;;;;;;;10.89;100.00;98051.19;4156024;28;20390;-73
2022/10/21 09:04:17;;;;;;;15.20;10.82;;;;;;;10.93;100.00;98043.69;4156613;28;20514;-73
2022/10/21 09:06:29;;;;;;;24.15;14.13;;;;;;;11.00;100.00;98050.41;4157637;28;20037;-73
2022/10/21 09:08:32;;;;;;;19.73;12.57;;;;;;;11.01;100.00;98040.94;4162163;28;20367;-73
2022/10/21 09:10:38;;;;;;;18.73;12.77;;;;;;;11.07;100.00;98044.91;4159852;28;20102;-74
2022/10/21 09:12:50;;;;;;;19.63;12.50;;;;;;;11.10;100.00;98035.81;4161815;28;20037;-73
2022/10/21 09:14:55;;;;;;;14.00;10.10;;;;;;;11.17;100.00;98031.09;4156350;28;20053;-73
2022/10/21 09:17:26;;;;;;;14.13;9.00;;;;;;;11.15;100.00;98035.44;4159749;28;20477;-73
2022/10/21 09:19:39;;;;;;;16.45;8.77;;;;;;;11.23;100.00;98042.56;4159132;28;20104;-73
2022/10/21 09:21:54;;;;;;;19.38;12.60;;;;;;;11.26;100.00;98052.88;4161873;28;20041;-73
2022/10/21 09:24:23;;;;;;;21.67;14.35;;;;;;;11.32;100.00;98054.03;4156048;28;20061;-73
2022/10/21 09:26:56;;;;;;;19.60;12.98;;;;;;;11.38;100.00;98052.47;4156082;28;20064;-73
2022/10/21 09:29:00;;;;;;;18.90;11.85;;;;;;;11.40;100.00;98049.31;4135149;28;20342;-73
2022/10/21 09:31:02;;;;;;;17.67;11.38;;;;;;;11.44;100.00;98047.34;4158837;28;20140;-73
2022/10/21 09:33:14;;;;;;;16.60;11.38;;;;;;;11.47;100.00;98052.88;4156252;28;20404;-74